Aérodrome :
LOGIN :

S'inscrire | Disclaimer

   EN    FR    IT 

 










Légende :    VFR   VFR Marginal   IFR   IFR Intensif   IFR Très Intensif
Visi : 
Plafond : 
>= 8 km
>= 3000ft
5 à 8 km
1000 à 3000 ft
1500m à 5 km
500 à 1000 ft
800 à 1500m
200 à 500 ft
< 800m
< 200 ft
Symboles :   Orages  Brouillard  Fortes neiges  Fortes précipitations  Vent > 20 kt
SIGMETs :   Divers  Orages  Givrage  Turbulence  Onde Orograph.  Cendres Volcan.







- Altitude de l'aérodrome : 63 ft
- Code IATA : NTB


ENNO - Notodden

DERNIER METAR :
  • 241050Z 28005KT CAVOK 13/01 Q1016

METARs EXPIRÉS :
  • 240950Z VRB02KT CAVOK 11/02 Q1017
  • 240850Z VRB02KT CAVOK 09/02 Q1017

TAF TAF ENNO
Valide du 24 à 12h jusqu'au 24 à 17h UTC


241100Z 2412/2417 VRB05KT 9999 FEW040 BKN070
BECMG 2412/2414 11010KT
Pas de NOTAMs connus pour ce terrain.
2 SIGMETs publiés pour la FIR Norway (ENOR) :
 
Onde orographique forte
ENSV SIGMET B04 VALID 241200/241600 ENVV
ENOR NORWAY FIR SEV MTW FCST WI N5800 E00730 - N5825 E00550 - N6200 E00500 - N6200 E00730 - N5800 E00730 SFC/FL180 STNR NC=
Onde orographique forte
ENSV SIGMET B03 VALID 240800/241200 ENVV
ENOR NORWAY FIR SEV MTW FCST WI N5800 E00730 - N5825 E00550 - N6050 E00550 - N6045 E00730 - N5800 E00730 SFC/FL180 STNR NC=



MET'MAP, la Météo Aéronautique d'un coup d'oeil ! - Copyright ORBIFLY Décembre 2007 - Disclaimer

ORBIFLY MET'MAP TEAM :

Programmation & Développement : Alexandra Zaïnal
Conception & Développement : Baudouin d'Aumeries
Co-Programmation & Développement : Marc-Olivier Méhu
Soutien technique & logistique : Manuel Goepfert

Contact : metmap@orbifly.com




SOURCES & CREDITS :

   NOAA